sensor_id;sensor_type;location;lat;lon;timestamp;pressure;altitude;pressure_sealevel;temperature;humidity
70304;BME280;57712;48.752;11.348;2022-08-19T00:01:58;96891.53;;;21.19;88.29
70304;BME280;57712;48.752;11.348;2022-08-19T00:04:29;96892.03;;;21.23;87.83
70304;BME280;57712;48.752;11.348;2022-08-19T00:06:57;96887.97;;;21.24;88.00
70304;BME280;57712;48.752;11.348;2022-08-19T00:09:24;96896.31;;;21.13;88.64
70304;BME280;57712;48.752;11.348;2022-08-19T00:11:52;96903.16;;;21.12;88.11
70304;BME280;57712;48.752;11.348;2022-08-19T00:14:19;96909.75;;;21.09;88.32
70304;BME280;57712;48.752;11.348;2022-08-19T00:16:48;96913.28;;;21.15;87.83
70304;BME280;57712;48.752;11.348;2022-08-19T00:19:16;96924.94;;;21.08;88.09
70304;BME280;57712;48.752;11.348;2022-08-19T00:21:42;96921.38;;;21.13;88.30
70304;BME280;57712;48.752;11.348;2022-08-19T00:24:11;96914.28;;;21.12;87.76
70304;BME280;57712;48.752;11.348;2022-08-19T00:26:38;96912.03;;;21.05;88.17
70304;BME280;57712;48.752;11.348;2022-08-19T00:29:07;96904.16;;;20.98;88.31
70304;BME280;57712;48.752;11.348;2022-08-19T00:31:33;96900.63;;;21.14;88.58
70304;BME280;57712;48.752;11.348;2022-08-19T00:34:00;96900.13;;;21.21;88.23
70304;BME280;57712;48.752;11.348;2022-08-19T00:36:27;96903.69;;;21.16;87.60
70304;BME280;57712;48.752;11.348;2022-08-19T00:38:54;96922.66;;;21.12;88.27
70304;BME280;57712;48.752;11.348;2022-08-19T00:41:23;96917.09;;;21.07;88.50
70304;BME280;57712;48.752;11.348;2022-08-19T00:44:02;96920.13;;;21.20;87.98
70304;BME280;57712;48.752;11.348;2022-08-19T00:46:29;96908.97;;;21.09;88.42
70304;BME280;57712;48.752;11.348;2022-08-19T00:48:56;96907.97;;;21.17;88.07
70304;BME280;57712;48.752;11.348;2022-08-19T00:51:26;96913.00;;;21.02;88.88
70304;BME280;57712;48.752;11.348;2022-08-19T00:53:55;96907.94;;;21.00;88.24
70304;BME280;57712;48.752;11.348;2022-08-19T00:56:23;96902.66;;;21.08;88.25
70304;BME280;57712;48.752;11.348;2022-08-19T00:58:50;96906.94;;;21.15;87.58
70304;BME280;57712;48.752;11.348;2022-08-19T01:01:16;96915.81;;;21.13;87.86
70304;BME280;57712;48.752;11.348;2022-08-19T01:03:43;96915.81;;;21.13;87.95
70304;BME280;57712;48.752;11.348;2022-08-19T01:06:23;96923.66;;;21.15;87.49
70304;BME280;57712;48.752;11.348;2022-08-19T01:08:50;96922.09;;;20.91;88.48
70304;BME280;57712;48.752;11.348;2022-08-19T01:11:17;96924.41;;;21.04;87.68
70304;BME280;57712;48.752;11.348;2022-08-19T01:13:44;96918.84;;;21.15;87.79
70304;BME280;57712;48.752;11.348;2022-08-19T01:16:16;96916.34;;;21.17;87.09
70304;BME280;57712;48.752;11.348;2022-08-19T01:18:44;96912.28;;;21.18;87.21
70304;BME280;57712;48.752;11.348;2022-08-19T01:21:23;96912.72;;;20.94;87.16
70304;BME280;57712;48.752;11.348;2022-08-19T01:23:52;96925.13;;;20.93;87.48
70304;BME280;57712;48.752;11.348;2022-08-19T01:26:22;96926.94;;;21.02;87.34
70304;BME280;57712;48.752;11.348;2022-08-19T01:28:52;96938.56;;;20.89;87.40
70304;BME280;57712;48.752;11.348;2022-08-19T01:31:27;96944.06;;;20.72;87.75
70304;BME280;57712;48.752;11.348;2022-08-19T01:33:59;96947.00;;;20.52;89.03
70304;BME280;57712;48.752;11.348;2022-08-19T01:38:55;96942.06;;;20.30;89.76
70304;BME280;57712;48.752;11.348;2022-08-19T01:41:22;96953.44;;;20.27;89.88
70304;BME280;57712;48.752;11.348;2022-08-19T01:43:51;96958.75;;;20.25;89.06
70304;BME280;57712;48.752;11.348;2022-08-19T01:46:38;96964.63;;;20.38;90.13
70304;BME280;57712;48.752;11.348;2022-08-19T01:49:06;96993.09;;;20.22;90.25
70304;BME280;57712;48.752;11.348;2022-08-19T01:51:34;96976.84;;;20.46;89.76
70304;BME280;57712;48.752;11.348;2022-08-19T01:54:05;96965.25;;;20.53;89.30
70304;BME280;57712;48.752;11.348;2022-08-19T01:56:31;96957.16;;;20.61;89.43
70304;BME280;57712;48.752;11.348;2022-08-19T01:59:02;96963.53;;;20.72;88.73
70304;BME280;57712;48.752;11.348;2022-08-19T02:01:31;96964.50;;;20.58;88.90
70304;BME280;57712;48.752;11.348;2022-08-19T02:03:59;96967.03;;;20.62;88.68
70304;BME280;57712;48.752;11.348;2022-08-19T02:06:27;96963.69;;;20.52;89.22
70304;BME280;57712;48.752;11.348;2022-08-19T02:08:55;96973.94;;;20.78;88.53
70304;BME280;57712;48.752;11.348;2022-08-19T02:11:26;96967.28;;;20.58;88.75
70304;BME280;57712;48.752;11.348;2022-08-19T02:13:54;96972.75;;;20.95;88.37
70304;BME280;57712;48.752;11.348;2022-08-19T02:16:21;96986.69;;;21.01;87.94
70304;BME280;57712;48.752;11.348;2022-08-19T02:18:49;96999.06;;;20.94;88.03
70304;BME280;57712;48.752;11.348;2022-08-19T02:21:18;97013.06;;;21.06;87.82
70304;BME280;57712;48.752;11.348;2022-08-19T02:23:46;97005.97;;;21.10;87.80
70304;BME280;57712;48.752;11.348;2022-08-19T02:26:13;97012.00;;;21.03;88.20
70304;BME280;57712;48.752;11.348;2022-08-19T02:28:40;96989.69;;;20.92;88.06
70304;BME280;57712;48.752;11.348;2022-08-19T02:31:15;96989.19;;;20.88;88.26
70304;BME280;57712;48.752;11.348;2022-08-19T02:33:44;96973.75;;;20.87;88.26
70304;BME280;57712;48.752;11.348;2022-08-19T02:36:12;96978.03;;;20.88;89.08
70304;BME280;57712;48.752;11.348;2022-08-19T02:38:41;96982.59;;;20.91;88.22
70304;BME280;57712;48.752;11.348;2022-08-19T02:41:21;96978.56;;;20.92;88.31
70304;BME280;57712;48.752;11.348;2022-08-19T02:43:53;96965.44;;;21.09;88.18
70304;BME280;57712;48.752;11.348;2022-08-19T02:46:39;96946.44;;;21.02;87.57
70304;BME280;57712;48.752;11.348;2022-08-19T02:49:07;96949.44;;;20.87;88.68
70304;BME280;57712;48.752;11.348;2022-08-19T02:51:37;96944.06;;;20.72;88.69
70304;BME280;57712;48.752;11.348;2022-08-19T02:54:05;96939.03;;;20.77;88.69
70304;BME280;57712;48.752;11.348;2022-08-19T02:56:35;96938.00;;;20.80;88.70
70304;BME280;57712;48.752;11.348;2022-08-19T02:59:03;96940.28;;;20.75;87.98
70304;BME280;57712;48.752;11.348;2022-08-19T03:01:37;96949.38;;;20.65;88.36
70304;BME280;57712;48.752;11.348;2022-08-19T03:04:10;96953.38;;;20.58;88.83
70304;BME280;57712;48.752;11.348;2022-08-19T03:06:39;96951.91;;;20.68;88.43
70304;BME280;57712;48.752;11.348;2022-08-19T03:09:07;96951.16;;;20.73;88.35
70304;BME280;57712;48.752;11.348;2022-08-19T03:11:34;96953.13;;;20.56;88.80
70304;BME280;57712;48.752;11.348;2022-08-19T03:14:02;96953.91;;;20.68;89.09
70304;BME280;57712;48.752;11.348;2022-08-19T03:16:32;96952.41;;;20.67;88.72
70304;BME280;57712;48.752;11.348;2022-08-19T03:19:00;96960.16;;;20.46;88.83
70304;BME280;57712;48.752;11.348;2022-08-19T03:21:30;96959.78;;;20.75;88.70
70304;BME280;57712;48.752;11.348;2022-08-19T03:24:00;96968.16;;;20.87;88.02
70304;BME280;57712;48.752;11.348;2022-08-19T03:26:27;96968.28;;;20.55;88.20
70304;BME280;57712;48.752;11.348;2022-08-19T03:28:54;96969.09;;;20.72;88.62
70304;BME280;57712;48.752;11.348;2022-08-19T03:31:25;96973.31;;;20.51;89.14
70304;BME280;57712;48.752;11.348;2022-08-19T03:34:14;96967.84;;;20.73;88.34
70304;BME280;57712;48.752;11.348;2022-08-19T03:36:41;96958.94;;;20.58;89.13
70304;BME280;57712;48.752;11.348;2022-08-19T03:39:09;96959.13;;;20.43;89.67
70304;BME280;57712;48.752;11.348;2022-08-19T03:41:40;96951.34;;;20.59;89.60
70304;BME280;57712;48.752;11.348;2022-08-19T03:44:20;96946.13;;;20.78;88.96
70304;BME280;57712;48.752;11.348;2022-08-19T03:46:52;96947.06;;;20.63;88.94
70304;BME280;57712;48.752;11.348;2022-08-19T03:49:21;96953.34;;;20.53;89.83
70304;BME280;57712;48.752;11.348;2022-08-19T03:51:55;96950.28;;;20.45;89.62
70304;BME280;57712;48.752;11.348;2022-08-19T03:54:24;96954.00;;;20.42;90.48
70304;BME280;57712;48.752;11.348;2022-08-19T03:56:53;96957.97;;;20.67;89.39
70304;BME280;57712;48.752;11.348;2022-08-19T03:59:28;96956.03;;;20.84;88.53
70304;BME280;57712;48.752;11.348;2022-08-19T04:01:58;96958.28;;;20.86;88.74
70304;BME280;57712;48.752;11.348;2022-08-19T04:04:25;96969.88;;;20.73;88.22
70304;BME280;57712;48.752;11.348;2022-08-19T04:06:55;96970.88;;;20.70;88.94
70304;BME280;57712;48.752;11.348;2022-08-19T04:09:22;96962.59;;;20.87;88.08
70304;BME280;57712;48.752;11.348;2022-08-19T04:11:51;96971.16;;;20.78;88.23
70304;BME280;57712;48.752;11.348;2022-08-19T04:14:24;96971.44;;;20.80;88.14
70304;BME280;57712;48.752;11.348;2022-08-19T04:16:52;96966.16;;;20.93;87.69
70304;BME280;57712;48.752;11.348;2022-08-19T04:19:19;96966.91;;;20.88;88.27
70304;BME280;57712;48.752;11.348;2022-08-19T04:21:50;96983.53;;;20.65;88.22
70304;BME280;57712;48.752;11.348;2022-08-19T04:24:18;97001.06;;;20.40;89.88
70304;BME280;57712;48.752;11.348;2022-08-19T04:26:46;96988.81;;;20.63;88.63
70304;BME280;57712;48.752;11.348;2022-08-19T04:29:17;96995.91;;;20.64;88.75
70304;BME280;57712;48.752;11.348;2022-08-19T04:31:45;96991.25;;;20.44;88.55
70304;BME280;57712;48.752;11.348;2022-08-19T04:34:14;96999.50;;;20.76;88.09
70304;BME280;57712;48.752;11.348;2022-08-19T04:36:42;96999.84;;;20.95;87.81
70304;BME280;57712;48.752;11.348;2022-08-19T04:39:15;97003.72;;;20.60;88.27
70304;BME280;57712;48.752;11.348;2022-08-19T04:41:43;97003.47;;;20.58;87.22
70304;BME280;57712;48.752;11.348;2022-08-19T04:44:31;97001.78;;;20.78;87.75
70304;BME280;57712;48.752;11.348;2022-08-19T04:47:01;97003.25;;;20.67;87.63
70304;BME280;57712;48.752;11.348;2022-08-19T04:49:37;97008.47;;;20.49;88.06
70304;BME280;57712;48.752;11.348;2022-08-19T04:52:03;96997.25;;;20.80;87.27
70304;BME280;57712;48.752;11.348;2022-08-19T04:54:30;97008.84;;;20.67;87.12
70304;BME280;57712;48.752;11.348;2022-08-19T04:57:06;97011.22;;;20.91;86.89
70304;BME280;57712;48.752;11.348;2022-08-19T04:59:36;97024.59;;;20.82;86.60
70304;BME280;57712;48.752;11.348;2022-08-19T05:02:03;97018.81;;;20.91;86.34
70304;BME280;57712;48.752;11.348;2022-08-19T05:04:30;97023.19;;;21.14;86.13
70304;BME280;57712;48.752;11.348;2022-08-19T05:06:59;97022.00;;;21.26;85.79
70304;BME280;57712;48.752;11.348;2022-08-19T05:09:28;97038.63;;;21.10;85.38
70304;BME280;57712;48.752;11.348;2022-08-19T05:12:15;97028.69;;;20.92;86.05
70304;BME280;57712;48.752;11.348;2022-08-19T05:14:42;97022.59;;;20.88;86.40
70304;BME280;57712;48.752;11.348;2022-08-19T05:17:08;97017.31;;;20.95;86.36
70304;BME280;57712;48.752;11.348;2022-08-19T05:19:55;97019.09;;;21.04;86.35
70304;BME280;57712;48.752;11.348;2022-08-19T05:22:43;97018.84;;;20.96;85.37
70304;BME280;57712;48.752;11.348;2022-08-19T05:25:13;97032.78;;;21.02;86.60
70304;BME280;57712;48.752;11.348;2022-08-19T05:27:41;97023.69;;;21.07;85.41
70304;BME280;57712;48.752;11.348;2022-08-19T05:30:10;97030.78;;;21.14;85.67
70304;BME280;57712;48.752;11.348;2022-08-19T05:32:38;97039.13;;;21.08;84.99
70304;BME280;57712;48.752;11.348;2022-08-19T05:35:05;97036.44;;;21.30;85.49
70304;BME280;57712;48.752;11.348;2022-08-19T05:37:32;97034.66;;;21.27;85.32
70304;BME280;57712;48.752;11.348;2022-08-19T05:39:58;97029.13;;;21.44;85.29
70304;BME280;57712;48.752;11.348;2022-08-19T05:42:25;97034.94;;;21.41;84.43
70304;BME280;57712;48.752;11.348;2022-08-19T05:44:53;97031.13;;;21.32;84.18
70304;BME280;57712;48.752;11.348;2022-08-19T05:47:20;97023.34;;;21.59;84.27
70304;BME280;57712;48.752;11.348;2022-08-19T05:49:47;97032.94;;;21.47;84.10
70304;BME280;57712;48.752;11.348;2022-08-19T05:52:16;97043.84;;;21.56;83.95
70304;BME280;57712;48.752;11.348;2022-08-19T05:54:44;97047.41;;;21.51;84.56
70304;BME280;57712;48.752;11.348;2022-08-19T05:57:17;97047.91;;;21.55;84.36
70304;BME280;57712;48.752;11.348;2022-08-19T05:59:44;97041.34;;;21.58;84.28
70304;BME280;57712;48.752;11.348;2022-08-19T06:02:25;97042.06;;;21.53;83.62
70304;BME280;57712;48.752;11.348;2022-08-19T06:04:52;97036.50;;;21.53;83.61
70304;BME280;57712;48.752;11.348;2022-08-19T06:07:18;97048.03;;;21.23;85.44
70304;BME280;57712;48.752;11.348;2022-08-19T06:09:45;97035.03;;;21.03;85.40
70304;BME280;57712;48.752;11.348;2022-08-19T06:12:35;97031.81;;;21.16;84.71
70304;BME280;57712;48.752;11.348;2022-08-19T06:15:08;97038.63;;;21.15;85.11
70304;BME280;57712;48.752;11.348;2022-08-19T06:17:35;97043.06;;;21.39;84.19
70304;BME280;57712;48.752;11.348;2022-08-19T06:20:08;97030.66;;;21.56;84.02
70304;BME280;57712;48.752;11.348;2022-08-19T06:22:43;97032.41;;;21.43;84.24
70304;BME280;57712;48.752;11.348;2022-08-19T06:25:12;97024.09;;;21.59;83.58
70304;BME280;57712;48.752;11.348;2022-08-19T06:27:39;97018.28;;;21.63;83.78
70304;BME280;57712;48.752;11.348;2022-08-19T06:30:26;97024.59;;;21.64;84.07
70304;BME280;57712;48.752;11.348;2022-08-19T06:32:53;97029.91;;;21.67;83.69
70304;BME280;57712;48.752;11.348;2022-08-19T06:35:19;97031.19;;;21.77;83.89
70304;BME280;57712;48.752;11.348;2022-08-19T06:37:46;97042.63;;;21.79;83.63
70304;BME280;57712;48.752;11.348;2022-08-19T06:40:14;97055.28;;;21.69;83.17
70304;BME280;57712;48.752;11.348;2022-08-19T06:42:41;97049.19;;;21.76;83.03
70304;BME280;57712;48.752;11.348;2022-08-19T06:45:21;97057.53;;;21.48;83.99
70304;BME280;57712;48.752;11.348;2022-08-19T06:47:59;97059.75;;;21.27;84.85
70304;BME280;57712;48.752;11.348;2022-08-19T06:50:26;97062.22;;;21.25;84.85
70304;BME280;57712;48.752;11.348;2022-08-19T06:52:53;97058.25;;;21.38;85.20
70304;BME280;57712;48.752;11.348;2022-08-19T06:55:20;97060.59;;;21.67;84.72
70304;BME280;57712;48.752;11.348;2022-08-19T06:57:47;97063.34;;;21.56;84.54
70304;BME280;57712;48.752;11.348;2022-08-19T07:00:15;97060.09;;;21.57;84.43
70304;BME280;57712;48.752;11.348;2022-08-19T07:02:43;97060.84;;;21.58;84.29
70304;BME280;57712;48.752;11.348;2022-08-19T07:05:18;97062.38;;;21.70;83.56
70304;BME280;57712;48.752;11.348;2022-08-19T07:07:45;97056.81;;;21.70;84.42
70304;BME280;57712;48.752;11.348;2022-08-19T07:10:13;97050.47;;;21.86;84.52
70304;BME280;57712;48.752;11.348;2022-08-19T07:12:39;97045.13;;;21.77;84.11
70304;BME280;57712;48.752;11.348;2022-08-19T07:15:07;97047.19;;;21.94;82.94
70304;BME280;57712;48.752;11.348;2022-08-19T07:17:36;97046.69;;;22.01;83.14
70304;BME280;57712;48.752;11.348;2022-08-19T07:20:07;97046.69;;;22.01;83.68
70304;BME280;57712;48.752;11.348;2022-08-19T07:22:39;97051.28;;;22.15;83.34
70304;BME280;57712;48.752;11.348;2022-08-19T07:25:08;97051.25;;;22.04;83.66
70304;BME280;57712;48.752;11.348;2022-08-19T07:27:35;97051.28;;;22.15;83.00
70304;BME280;57712;48.752;11.348;2022-08-19T07:30:06;97048.72;;;22.06;83.53
70304;BME280;57712;48.752;11.348;2022-08-19T07:32:37;97048.00;;;22.22;83.88
70304;BME280;57712;48.752;11.348;2022-08-19T07:35:04;97050.75;;;22.28;82.94
70304;BME280;57712;48.752;11.348;2022-08-19T07:37:32;97054.56;;;22.25;82.96
70304;BME280;57712;48.752;11.348;2022-08-19T07:40:00;97052.28;;;22.34;82.21
70304;BME280;57712;48.752;11.348;2022-08-19T07:42:26;97066.47;;;22.47;82.35
70304;BME280;57712;48.752;11.348;2022-08-19T07:44:55;97058.88;;;22.42;81.98
70304;BME280;57712;48.752;11.348;2022-08-19T07:47:22;97055.81;;;22.40;82.64
70304;BME280;57712;48.752;11.348;2022-08-19T07:50:10;97065.47;;;22.34;81.39
70304;BME280;57712;48.752;11.348;2022-08-19T07:52:38;97059.63;;;22.37;81.51
70304;BME280;57712;48.752;11.348;2022-08-19T07:55:08;97067.78;;;22.41;81.43
70304;BME280;57712;48.752;11.348;2022-08-19T07:57:55;97060.88;;;22.47;80.55
70304;BME280;57712;48.752;11.348;2022-08-19T08:00:22;97058.09;;;22.47;80.30
70304;BME280;57712;48.752;11.348;2022-08-19T08:02:50;97061.41;;;22.40;81.26
70304;BME280;57712;48.752;11.348;2022-08-19T08:05:20;97055.81;;;22.40;83.29
70304;BME280;57712;48.752;11.348;2022-08-19T08:08:08;97048.22;;;22.35;84.00
70304;BME280;57712;48.752;11.348;2022-08-19T08:10:54;97038.84;;;22.22;83.13
70304;BME280;57712;48.752;11.348;2022-08-19T08:13:23;97044.19;;;22.25;82.89
70304;BME280;57712;48.752;11.348;2022-08-19T08:15:51;97034.53;;;22.15;83.83
70304;BME280;57712;48.752;11.348;2022-08-19T08:18:19;97035.78;;;22.36;84.69
70304;BME280;57712;48.752;11.348;2022-08-19T08:20:46;97039.34;;;22.31;84.32
70304;BME280;57712;48.752;11.348;2022-08-19T08:23:13;97035.53;;;22.29;82.90
70304;BME280;57712;48.752;11.348;2022-08-19T08:25:49;97041.13;;;22.34;83.14
70304;BME280;57712;48.752;11.348;2022-08-19T08:28:17;97040.63;;;22.36;83.17
70304;BME280;57712;48.752;11.348;2022-08-19T08:30:45;97040.88;;;22.32;84.20
70304;BME280;57712;48.752;11.348;2022-08-19T08:33:19;97045.94;;;22.34;82.89
70304;BME280;57712;48.752;11.348;2022-08-19T08:36:00;97053.31;;;22.31;83.69
70304;BME280;57712;48.752;11.348;2022-08-19T08:38:30;97046.72;;;22.34;83.08
70304;BME280;57712;48.752;11.348;2022-08-19T08:41:11;97050.22;;;22.40;84.14
70304;BME280;57712;48.752;11.348;2022-08-19T08:43:46;97045.41;;;22.46;82.98
70304;BME280;57712;48.752;11.348;2022-08-19T08:46:22;97041.59;;;22.50;83.04
70304;BME280;57712;48.752;11.348;2022-08-19T08:51:46;97030.88;;;22.87;82.55
70304;BME280;57712;48.752;11.348;2022-08-19T08:54:30;97034.16;;;22.91;81.75
70304;BME280;57712;48.752;11.348;2022-08-19T08:57:00;97034.13;;;22.97;81.11
70304;BME280;57712;48.752;11.348;2022-08-19T08:59:31;97038.47;;;22.81;80.49
70304;BME280;57712;48.752;11.348;2022-08-19T09:02:00;97035.19;;;22.83;79.62
70304;BME280;57712;48.752;11.348;2022-08-19T09:04:27;97037.69;;;22.97;81.24
70304;BME280;57712;48.752;11.348;2022-08-19T09:10:10;97047.38;;;22.85;81.07
70304;BME280;57712;48.752;11.348;2022-08-19T09:15:56;97053.22;;;22.87;80.53
70304;BME280;57712;48.752;11.348;2022-08-19T09:18:23;97042.28;;;22.78;79.81
70304;BME280;57712;48.752;11.348;2022-08-19T09:20:54;97049.69;;;22.70;80.90
70304;BME280;57712;48.752;11.348;2022-08-19T09:23:22;97046.63;;;22.68;80.09
70304;BME280;57712;48.752;11.348;2022-08-19T09:25:52;97045.59;;;22.71;80.63
70304;BME280;57712;48.752;11.348;2022-08-19T09:28:18;97045.19;;;22.33;81.05
70304;BME280;57712;48.752;11.348;2022-08-19T09:30:51;97049.72;;;22.47;81.25
70304;BME280;57712;48.752;11.348;2022-08-19T09:33:18;97049.94;;;22.66;82.54
70304;BME280;57712;48.752;11.348;2022-08-19T09:35:45;97045.88;;;22.67;82.57
70304;BME280;57712;48.752;11.348;2022-08-19T09:38:18;97050.72;;;22.67;80.71
70304;BME280;57712;48.752;11.348;2022-08-19T09:40:45;97052.72;;;22.77;82.09
70304;BME280;57712;48.752;11.348;2022-08-19T09:43:11;97051.94;;;22.77;81.62
70304;BME280;57712;48.752;11.348;2022-08-19T09:45:39;97051.22;;;22.60;80.84
70304;BME280;57712;48.752;11.348;2022-08-19T09:48:06;97056.00;;;22.76;81.48
70304;BME280;57712;48.752;11.348;2022-08-19T09:50:35;97056.75;;;22.93;80.52
70304;BME280;57712;48.752;11.348;2022-08-19T09:53:18;97055.22;;;22.81;81.12
70304;BME280;57712;48.752;11.348;2022-08-19T09:55:44;97058.31;;;22.72;79.37
70304;BME280;57712;48.752;11.348;2022-08-19T09:58:11;97048.88;;;22.97;79.85
70304;BME280;57712;48.752;11.348;2022-08-19T10:00:38;97051.34;;;23.12;79.45
70304;BME280;57712;48.752;11.348;2022-08-19T10:03:04;97049.56;;;23.15;80.58
70304;BME280;57712;48.752;11.348;2022-08-19T10:05:32;97058.19;;;23.17;79.85
70304;BME280;57712;48.752;11.348;2022-08-19T10:08:23;97050.53;;;23.23;80.08
70304;BME280;57712;48.752;11.348;2022-08-19T10:10:53;97059.22;;;23.14;80.51
70304;BME280;57712;48.752;11.348;2022-08-19T10:13:23;97052.09;;;23.13;79.30
70304;BME280;57712;48.752;11.348;2022-08-19T10:15:57;97055.41;;;23.17;79.35
70304;BME280;57712;48.752;11.348;2022-08-19T10:18:27;97053.91;;;23.10;80.84
70304;BME280;57712;48.752;11.348;2022-08-19T10:21:06;97043.22;;;23.14;80.86
70304;BME280;57712;48.752;11.348;2022-08-19T10:23:38;97053.66;;;23.08;80.16
70304;BME280;57712;48.752;11.348;2022-08-19T10:26:06;97055.16;;;23.15;78.58
70304;BME280;57712;48.752;11.348;2022-08-19T10:28:34;97056.97;;;23.01;80.15
70304;BME280;57712;48.752;11.348;2022-08-19T10:31:06;97054.69;;;22.99;79.69
70304;BME280;57712;48.752;11.348;2022-08-19T10:33:33;97057.44;;;23.11;79.89
70304;BME280;57712;48.752;11.348;2022-08-19T10:36:21;97052.69;;;22.94;80.88
70304;BME280;57712;48.752;11.348;2022-08-19T10:38:52;97053.47;;;22.89;79.90
70304;BME280;57712;48.752;11.348;2022-08-19T10:41:25;97066.44;;;22.87;83.32
70304;BME280;57712;48.752;11.348;2022-08-19T10:43:54;97056.31;;;22.56;84.53
70304;BME280;57712;48.752;11.348;2022-08-19T10:46:23;97054.56;;;22.25;86.12
70304;BME280;57712;48.752;11.348;2022-08-19T10:48:51;97055.06;;;22.40;86.56
70304;BME280;57712;48.752;11.348;2022-08-19T10:51:18;97050.50;;;22.37;86.70
70304;BME280;57712;48.752;11.348;2022-08-19T10:54:13;97053.31;;;22.31;86.47
70304;BME280;57712;48.752;11.348;2022-08-19T10:56:40;97057.88;;;22.34;86.88
70304;BME280;57712;48.752;11.348;2022-08-19T10:59:24;97045.94;;;22.34;86.79
70304;BME280;57712;48.752;11.348;2022-08-19T11:01:53;97048.22;;;22.24;86.83
70304;BME280;57712;48.752;11.348;2022-08-19T11:04:22;97048.50;;;22.32;87.50
70304;BME280;57712;48.752;11.348;2022-08-19T11:06:55;97051.75;;;22.02;87.77
70304;BME280;57712;48.752;11.348;2022-08-19T11:09:23;97060.34;;;21.76;88.40
70304;BME280;57712;48.752;11.348;2022-08-19T11:12:00;97048.22;;;21.79;87.54
70304;BME280;57712;48.752;11.348;2022-08-19T11:14:29;97047.16;;;21.60;88.24
70304;BME280;57712;48.752;11.348;2022-08-19T11:16:59;97039.03;;;21.51;88.00
70304;BME280;57712;48.752;11.348;2022-08-19T11:19:26;97028.91;;;21.59;87.86
70304;BME280;57712;48.752;11.348;2022-08-19T11:21:53;97039.00;;;21.40;89.23
70304;BME280;57712;48.752;11.348;2022-08-19T11:24:25;97035.75;;;21.47;89.23
70304;BME280;57712;48.752;11.348;2022-08-19T11:26:54;97040.28;;;21.44;89.15
70304;BME280;57712;48.752;11.348;2022-08-19T11:29:25;97036.69;;;21.32;89.27
70304;BME280;57712;48.752;11.348;2022-08-19T11:31:52;97030.66;;;21.45;88.89
70304;BME280;57712;48.752;11.348;2022-08-19T11:34:21;97034.38;;;21.25;88.63
70304;BME280;57712;48.752;11.348;2022-08-19T11:36:49;97039.16;;;21.19;89.63
70304;BME280;57712;48.752;11.348;2022-08-19T11:39:20;97042.47;;;21.23;89.28
70304;BME280;57712;48.752;11.348;2022-08-19T11:41:48;97051.81;;;21.15;90.42
70304;BME280;57712;48.752;11.348;2022-08-19T11:44:14;97046.94;;;21.04;90.16
70304;BME280;57712;48.752;11.348;2022-08-19T11:46:42;97050.53;;;21.10;90.34
70304;BME280;57712;48.752;11.348;2022-08-19T11:49:14;97046.47;;;21.11;90.87
70304;BME280;57712;48.752;11.348;2022-08-19T11:51:42;97051.03;;;21.09;90.61
70304;BME280;57712;48.752;11.348;2022-08-19T11:54:13;97056.63;;;21.14;89.73
70304;BME280;57712;48.752;11.348;2022-08-19T11:56:41;97047.53;;;21.19;89.70
70304;BME280;57712;48.752;11.348;2022-08-19T11:59:08;97052.09;;;21.22;89.56
70304;BME280;57712;48.752;11.348;2022-08-19T12:01:40;97049.25;;;21.11;88.97
70304;BME280;57712;48.752;11.348;2022-08-19T12:04:09;97044.44;;;21.12;89.90
70304;BME280;57712;48.752;11.348;2022-08-19T12:06:38;97041.66;;;21.06;89.46
70304;BME280;57712;48.752;11.348;2022-08-19T12:09:07;97042.44;;;21.12;90.34
70304;BME280;57712;48.752;11.348;2022-08-19T12:11:35;97044.91;;;20.99;90.45
70304;BME280;57712;48.752;11.348;2022-08-19T12:14:03;97038.88;;;21.12;90.13
70304;BME280;57712;48.752;11.348;2022-08-19T12:16:30;97041.66;;;21.12;89.89
70304;BME280;57712;48.752;11.348;2022-08-19T12:18:59;97047.72;;;21.04;90.32
70304;BME280;57712;48.752;11.348;2022-08-19T12:21:32;97048.75;;;21.13;90.76
70304;BME280;57712;48.752;11.348;2022-08-19T12:24:00;97054.59;;;21.09;90.36
70304;BME280;57712;48.752;11.348;2022-08-19T12:26:29;97070.56;;;21.20;91.11
70304;BME280;57712;48.752;11.348;2022-08-19T12:28:58;97075.63;;;21.16;89.64
70304;BME280;57712;48.752;11.348;2022-08-19T12:31:27;97072.16;;;21.26;89.34
70304;BME280;57712;48.752;11.348;2022-08-19T12:33:54;97082.69;;;21.06;89.99
70304;BME280;57712;48.752;11.348;2022-08-19T12:36:21;97081.97;;;21.16;90.11
70304;BME280;57712;48.752;11.348;2022-08-19T12:38:49;97094.34;;;21.10;90.63
70304;BME280;57712;48.752;11.348;2022-08-19T12:41:17;97098.63;;;21.05;90.74
70304;BME280;57712;48.752;11.348;2022-08-19T12:43:45;97092.28;;;21.04;91.01
70304;BME280;57712;48.752;11.348;2022-08-19T12:46:11;97083.75;;;20.71;91.33
70304;BME280;57712;48.752;11.348;2022-08-19T12:48:38;97090.50;;;20.59;92.95
70304;BME280;57712;48.752;11.348;2022-08-19T12:51:09;97088.94;;;20.52;93.82
70304;BME280;57712;48.752;11.348;2022-08-19T12:53:36;97088.00;;;20.61;92.98
70304;BME280;57712;48.752;11.348;2022-08-19T12:56:05;97087.78;;;20.64;92.78
70304;BME280;57712;48.752;11.348;2022-08-19T12:58:36;97092.72;;;20.49;93.42
70304;BME280;57712;48.752;11.348;2022-08-19T13:01:11;97097.94;;;20.73;92.52
70304;BME280;57712;48.752;11.348;2022-08-19T13:03:38;97100.81;;;20.53;93.23
70304;BME280;57712;48.752;11.348;2022-08-19T13:06:06;97100.19;;;20.69;92.82
70304;BME280;57712;48.752;11.348;2022-08-19T13:08:33;97104.00;;;20.71;92.25
70304;BME280;57712;48.752;11.348;2022-08-19T13:11:08;97101.47;;;20.73;92.58
70304;BME280;57712;48.752;11.348;2022-08-19T13:13:41;97096.16;;;20.70;92.44
70304;BME280;57712;48.752;11.348;2022-08-19T13:16:10;97093.16;;;20.79;92.68
70304;BME280;57712;48.752;11.348;2022-08-19T13:18:38;97091.97;;;20.91;92.14